Time;durP1;ratioP1;P1;durP2;ratioP2;P2;SDS_P1;SDS_P2;PMS_P1;PMS_P2;Temp;Humidity;BMP_temperature;BMP_pressure;BME280_temperature;BME280_humidity;BME280_pressure;Samples;Min_cycle;Max_cycle;Signal;HPM_P1;HPM_P2
2022/06/22 00:01:12;;;;;;;5.28;1.70;;;19.50;51.40;;;;;;5099220;27;20047;-63
2022/06/22 00:03:41;;;;;;;2.80;1.80;;;19.40;51.20;;;;;;5102976;28;20058;-64
2022/06/22 00:06:22;;;;;;;3.80;2.22;;;19.40;51.10;;;;;;5103059;28;20055;-63
2022/06/22 00:08:53;;;;;;;2.63;1.67;;;19.30;51.20;;;;;;5102602;28;20059;-63
2022/06/22 00:11:21;;;;;;;2.95;1.90;;;19.30;51.20;;;;;;5098361;28;20066;-63
2022/06/22 00:13:53;;;;;;;2.65;1.33;;;19.30;51.20;;;;;;5100852;28;20419;-63
2022/06/22 00:16:25;;;;;;;1.45;1.27;;;19.30;51.30;;;;;;5101513;28;20059;-63
2022/06/22 00:18:54;;;;;;;5.97;2.10;;;19.20;51.30;;;;;;5102372;28;20051;-62
2022/06/22 00:21:26;;;;;;;5.07;2.20;;;19.20;51.40;;;;;;5099182;27;21369;-62
2022/06/22 00:23:55;;;;;;;7.65;1.90;;;19.20;51.40;;;;;;5101327;28;20410;-62
2022/06/22 00:26:33;;;;;;;7.57;2.05;;;19.10;51.30;;;;;;5099655;28;20058;-62
2022/06/22 00:29:19;;;;;;;3.28;1.70;;;19.10;51.40;;;;;;5100821;28;20047;-62
2022/06/22 00:32:01;;;;;;;4.97;2.28;;;19.10;51.50;;;;;;5099268;27;20055;-62
2022/06/22 00:34:30;;;;;;;3.55;1.73;;;19.00;51.80;;;;;;5100665;27;20414;-63
2022/06/22 00:37:00;;;;;;;5.65;1.92;;;18.90;51.60;;;;;;5102029;28;20055;-62
2022/06/22 00:39:36;;;;;;;2.97;1.48;;;18.90;51.70;;;;;;5100552;27;20422;-63
2022/06/22 00:42:21;;;;;;;5.43;1.90;;;18.90;51.80;;;;;;5096732;27;20051;-62
2022/06/22 00:44:53;;;;;;;3.40;2.13;;;18.80;51.70;;;;;;5100197;28;20047;-63
2022/06/22 00:47:27;;;;;;;1.85;1.30;;;18.80;51.80;;;;;;5101434;27;20058;-62
2022/06/22 00:49:57;;;;;;;2.63;1.63;;;18.70;51.80;;;;;;5102654;28;20047;-62
2022/06/22 00:52:33;;;;;;;2.22;1.40;;;18.80;52.00;;;;;;5097233;28;20430;-61
2022/06/22 00:55:00;;;;;;;3.40;1.63;;;18.70;52.20;;;;;;5096953;27;20051;-61
2022/06/22 00:57:34;;;;;;;3.67;1.40;;;18.70;52.30;;;;;;5101280;28;20514;-62
2022/06/22 01:00:05;;;;;;;;;;;18.70;52.50;;;;;;5102561;27;20513;-62
2022/06/22 01:02:38;;;;;;;3.10;1.35;;;18.70;52.30;;;;;;5099265;28;19931;-62
2022/06/22 01:05:17;;;;;;;3.97;1.90;;;18.70;52.20;;;;;;5101229;28;20074;-62
2022/06/22 01:07:52;;;;;;;3.22;1.50;;;18.60;52.40;;;;;;5100978;28;20052;-61
2022/06/22 01:10:27;;;;;;;2.72;1.48;;;18.60;52.40;;;;;;5099113;28;20066;-62
2022/06/22 01:13:00;;;;;;;1.98;1.48;;;18.50;52.50;;;;;;5100541;28;20044;-61
2022/06/22 01:15:34;;;;;;;3.33;1.53;;;18.50;52.60;;;;;;5099142;28;20055;-61
2022/06/22 01:18:07;;;;;;;4.63;1.42;;;18.50;52.80;;;;;;5101706;28;20055;-61
2022/06/22 01:20:46;;;;;;;3.67;1.97;;;18.40;52.80;;;;;;5099713;28;20498;-61
2022/06/22 01:23:38;;;;;;;3.85;1.60;;;18.40;52.80;;;;;;5101264;28;20505;-62
2022/06/22 01:26:20;;;;;;;4.45;1.75;;;18.40;52.90;;;;;;5099485;28;20047;-61
2022/06/22 01:28:53;;;;;;;2.38;1.83;;;18.30;52.80;;;;;;5100690;28;20514;-62
2022/06/22 01:31:21;;;;;;;3.42;1.75;;;18.30;52.90;;;;;;5097048;28;20067;-62
2022/06/22 01:33:51;;;;;;;2.20;1.80;;;18.30;52.90;;;;;;5099546;28;20435;-62
2022/06/22 01:36:27;;;;;;;3.95;1.75;;;18.20;52.90;;;;;;5097740;28;20043;-62
2022/06/22 01:38:54;;;;;;;4.05;1.98;;;18.20;53.10;;;;;;5096318;28;20047;-61
2022/06/22 01:41:33;;;;;;;2.78;1.92;;;18.10;53.10;;;;;;5095752;28;20043;-62
2022/06/22 01:44:09;;;;;;;3.42;1.92;;;18.10;53.20;;;;;;5101287;28;20059;-62
2022/06/22 01:46:47;;;;;;;3.28;2.15;;;18.00;53.10;;;;;;5100692;28;20055;-62
2022/06/22 01:49:20;;;;;;;3.10;2.00;;;18.00;53.20;;;;;;5100902;28;20427;-62
2022/06/22 01:51:52;;;;;;;6.57;2.47;;;18.00;53.30;;;;;;5096611;28;20052;-62
2022/06/22 01:54:24;;;;;;;2.50;1.90;;;18.00;53.40;;;;;;5099338;28;20058;-61
2022/06/22 01:56:57;;;;;;;3.60;2.40;;;17.90;53.60;;;;;;5099722;28;20058;-61
2022/06/22 01:59:34;;;;;;;8.37;2.60;;;17.90;53.80;;;;;;5099610;28;20052;-61
2022/06/22 02:02:08;;;;;;;5.03;2.13;;;17.90;54.10;;;;;;5097973;28;20056;-62
2022/06/22 02:04:39;;;;;;;3.05;2.15;;;17.90;54.10;;;;;;5099981;28;20410;-62
2022/06/22 02:10:12;;;;;;;2.58;1.98;;;17.80;54.10;;;;;;5105814;27;20430;-62
2022/06/22 02:12:47;;;;;;;3.55;1.73;;;17.80;54.10;;;;;;5097565;28;20047;-61
2022/06/22 02:15:21;;;;;;;1.95;1.80;;;17.80;54.10;;;;;;5099030;28;20059;-62
2022/06/22 02:17:49;;;;;;;3.65;2.30;;;17.80;54.20;;;;;;5101132;28;20520;-61
2022/06/22 02:20:33;;;;;;;2.75;1.80;;;17.70;54.10;;;;;;5103794;28;20059;-61
2022/06/22 02:23:16;;;;;;;2.25;2.00;;;17.70;54.30;;;;;;5100835;27;20060;-61
2022/06/22 02:25:50;;;;;;;3.55;2.20;;;17.70;54.30;;;;;;5103778;28;20066;-61
2022/06/22 02:28:17;;;;;;;2.70;1.93;;;17.60;54.30;;;;;;5098983;27;20448;-62
2022/06/22 02:30:46;;;;;;;4.63;2.75;;;17.60;54.20;;;;;;5099942;27;21023;-62
2022/06/22 02:33:14;;;;;;;4.00;2.05;;;17.60;54.30;;;;;;5104001;28;20059;-61
2022/06/22 02:35:43;;;;;;;2.60;1.95;;;17.50;54.30;;;;;;5103057;28;20071;-62
2022/06/22 02:38:15;;;;;;;5.93;2.47;;;17.50;54.50;;;;;;5101285;28;20052;-62
2022/06/22 02:46:24;;;;;;;3.17;2.20;;;17.40;54.60;;;;;;5101918;27;20059;-60
2022/06/22 02:48:58;;;;;;;8.75;2.50;;;17.40;54.60;;;;;;5102341;28;20052;-61
2022/06/22 02:51:29;;;;;;;4.33;1.83;;;17.40;54.80;;;;;;5104522;27;20059;-61
2022/06/22 02:54:00;;;;;;;4.07;2.30;;;17.40;54.80;;;;;;5100483;28;20486;-61
2022/06/22 02:56:31;;;;;;;4.00;2.45;;;17.30;54.70;;;;;;5098886;27;20056;-61
2022/06/22 02:58:59;;;;;;;5.78;2.53;;;17.30;54.80;;;;;;5102993;28;20078;-61
2022/06/22 03:01:32;;;;;;;3.05;2.35;;;17.30;54.80;;;;;;5100440;28;20479;-61
2022/06/22 03:04:03;;;;;;;5.90;2.73;;;17.20;55.00;;;;;;5101656;28;20055;-61
2022/06/22 03:06:35;;;;;;;4.00;2.20;;;17.20;55.00;;;;;;5103887;28;20056;-61
2022/06/22 03:09:05;;;;;;;3.40;2.20;;;17.20;55.00;;;;;;5102311;28;20060;-62
2022/06/22 03:11:34;;;;;;;3.05;2.30;;;17.20;55.10;;;;;;5099444;27;20529;-61
2022/06/22 03:14:13;;;;;;;5.65;2.60;;;17.20;55.20;;;;;;5103806;28;20513;-61
2022/06/22 03:16:46;;;;;;;6.43;2.80;;;17.20;55.70;;;;;;5102943;28;20052;-61
2022/06/22 03:19:18;;;;;;;3.55;2.15;;;17.20;55.70;;;;;;5102621;28;20059;-61
2022/06/22 03:21:45;;;;;;;7.38;2.78;;;17.20;55.80;;;;;;5101175;27;20520;-61
2022/06/22 03:24:19;;;;;;;2.97;2.33;;;17.20;55.80;;;;;;5102767;28;20421;-61
2022/06/22 03:26:51;;;;;;;4.25;2.45;;;17.10;55.90;;;;;;5102296;28;20055;-61
2022/06/22 03:29:27;;;;;;;4.30;2.58;;;17.20;55.90;;;;;;5101767;27;20048;-62
2022/06/22 03:32:01;;;;;;;4.97;2.70;;;17.20;56.10;;;;;;5099669;28;20495;-61
2022/06/22 03:34:31;;;;;;;5.05;2.90;;;17.20;56.00;;;;;;5103505;28;20418;-61
2022/06/22 03:37:04;;;;;;;4.32;2.65;;;17.20;56.00;;;;;;5101739;28;20048;-61
2022/06/22 03:39:37;;;;;;;4.80;2.92;;;17.20;56.10;;;;;;5101238;28;20048;-61
2022/06/22 03:42:08;;;;;;;4.80;2.90;;;17.20;56.30;;;;;;5098170;28;20426;-61
2022/06/22 03:44:41;;;;;;;3.75;3.30;;;17.20;56.40;;;;;;5099609;28;20052;-61
2022/06/22 03:47:15;;;;;;;5.38;2.90;;;17.20;56.60;;;;;;5101052;28;20047;-61
2022/06/22 03:49:50;;;;;;;5.28;2.70;;;17.20;56.70;;;;;;5103279;28;20064;-60
2022/06/22 03:52:26;;;;;;;4.90;3.05;;;17.20;56.90;;;;;;5101553;27;20055;-61
2022/06/22 03:55:01;;;;;;;4.07;3.05;;;17.20;56.70;;;;;;5101271;28;20055;-61
2022/06/22 03:57:33;;;;;;;7.03;3.22;;;17.20;56.70;;;;;;5102054;28;20051;-59
2022/06/22 04:00:02;;;;;;;4.45;3.05;;;17.30;56.90;;;;;;5103186;28;20059;-61
2022/06/22 04:02:31;;;;;;;4.20;2.40;;;17.20;56.80;;;;;;5101527;28;20502;-61
2022/06/22 04:05:01;;;;;;;3.05;2.00;;;17.30;56.80;;;;;;5097652;28;20063;-61
2022/06/22 04:07:34;;;;;;;3.38;2.22;;;17.30;56.60;;;;;;5100997;28;20425;-59
2022/06/22 04:10:02;;;;;;;3.20;1.80;;;17.30;56.60;;;;;;5098819;28;20063;-60
2022/06/22 04:12:35;;;;;;;4.22;2.13;;;17.30;56.40;;;;;;5096733;28;20063;-59
2022/06/22 04:15:14;;;;;;;3.80;2.22;;;17.30;56.30;;;;;;5099223;28;20051;-61
2022/06/22 04:17:47;;;;;;;4.20;2.47;;;17.30;56.10;;;;;;5095811;28;20554;-61
2022/06/22 04:20:23;;;;;;;5.55;2.40;;;17.30;56.00;;;;;;5098812;27;20056;-61
2022/06/22 04:22:54;;;;;;;2.92;2.30;;;17.30;56.10;;;;;;5099778;28;21209;-62
2022/06/22 04:25:28;;;;;;;5.95;3.10;;;17.20;56.00;;;;;;5100360;28;20056;-62
2022/06/22 04:27:59;;;;;;;8.30;3.90;;;17.20;56.30;;;;;;5099990;27;20047;-62
2022/06/22 04:30:30;;;;;;;6.57;3.83;;;17.30;56.40;;;;;;5097586;27;20048;-62
2022/06/22 04:33:07;;;;;;;5.35;3.30;;;17.20;56.70;;;;;;5097870;28;20423;-62
2022/06/22 04:35:37;;;;;;;3.72;2.83;;;17.20;57.00;;;;;;5099631;27;20055;-61
2022/06/22 04:38:12;;;;;;;6.32;3.17;;;17.20;57.00;;;;;;5093634;27;20070;-62
2022/06/22 04:40:51;;;;;;;4.35;3.47;;;17.30;57.50;;;;;;5098283;28;20055;-61
2022/06/22 04:43:20;;;;;;;3.70;2.70;;;17.30;57.70;;;;;;5100908;28;20055;-61
2022/06/22 04:45:49;;;;;;;3.88;2.60;;;17.30;57.50;;;;;;5098261;28;20051;-61
2022/06/22 04:48:21;;;;;;;4.25;2.55;;;17.40;57.60;;;;;;5098765;28;20048;-61
2022/06/22 04:50:53;;;;;;;18.85;10.95;;;17.40;57.80;;;;;;5098840;28;20062;-62
2022/06/22 04:53:25;;;;;;;7.70;4.70;;;17.40;57.80;;;;;;5101120;28;20422;-61
2022/06/22 04:55:53;;;;;;;4.80;3.22;;;17.50;57.90;;;;;;5096984;28;20048;-62
2022/06/22 04:58:32;;;;;;;5.80;3.15;;;17.40;57.90;;;;;;5099222;28;20051;-61
2022/06/22 05:01:02;;;;;;;5.97;2.85;;;17.40;58.00;;;;;;5097492;28;20419;-62
2022/06/22 05:03:32;;;;;;;4.72;3.40;;;17.50;58.00;;;;;;5097521;28;20494;-62
2022/06/22 05:06:03;;;;;;;4.53;3.00;;;17.50;58.10;;;;;;5095967;28;20406;-61
2022/06/22 05:08:37;;;;;;;4.35;3.05;;;17.60;58.20;;;;;;5098041;28;20052;-62
2022/06/22 05:11:12;;;;;;;6.75;3.13;;;17.60;58.30;;;;;;5098218;28;20063;-62
2022/06/22 05:13:43;;;;;;;5.88;3.10;;;17.70;58.40;;;;;;5093135;28;20048;-62
2022/06/22 05:16:15;;;;;;;5.72;3.20;;;17.70;58.40;;;;;;5100237;28;20058;-62
2022/06/22 05:18:46;;;;;;;3.65;2.58;;;17.70;58.60;;;;;;5100241;28;20047;-62
2022/06/22 05:21:19;;;;;;;11.38;4.18;;;17.80;58.60;;;;;;5099057;28;20422;-62
2022/06/22 05:23:53;;;;;;;4.40;3.45;;;17.80;58.50;;;;;;5095790;28;20040;-62
2022/06/22 05:26:23;;;;;;;5.33;3.27;;;17.90;58.40;;;;;;5093868;28;20059;-63
2022/06/22 05:28:59;;;;;;;4.72;2.65;;;17.90;58.30;;;;;;5100560;28;20058;-62
2022/06/22 05:31:32;;;;;;;5.70;3.30;;;18.00;58.50;;;;;;5095326;28;20556;-63
2022/06/22 05:34:05;;;;;;;3.53;2.75;;;18.10;58.60;;;;;;5096154;28;20055;-62
2022/06/22 05:36:37;;;;;;;5.25;2.85;;;18.10;58.50;;;;;;5096927;28;20483;-61
2022/06/22 05:39:07;;;;;;;4.93;3.28;;;18.20;58.40;;;;;;5099930;28;20426;-62
2022/06/22 05:41:39;;;;;;;6.65;3.28;;;18.20;58.30;;;;;;5096626;28;20058;-61
2022/06/22 05:44:11;;;;;;;6.50;2.90;;;18.30;58.10;;;;;;5098233;28;20052;-60
2022/06/22 05:46:40;;;;;;;5.65;2.75;;;18.30;57.40;;;;;;5099655;28;20051;-61
2022/06/22 05:49:17;;;;;;;4.10;2.70;;;18.40;57.20;;;;;;5101543;28;20059;-61
2022/06/22 05:51:51;;;;;;;6.07;3.22;;;18.40;57.50;;;;;;5094046;28;20059;-59
2022/06/22 05:54:22;;;;;;;3.38;2.30;;;18.50;58.70;;;;;;5102594;27;20047;-61
2022/06/22 05:56:54;;;;;;;4.45;2.53;;;18.50;58.90;;;;;;5101289;28;20054;-61
2022/06/22 05:59:37;;;;;;;8.02;3.15;;;18.50;58.30;;;;;;5097641;27;20479;-62
2022/06/22 06:02:12;;;;;;;4.10;2.78;;;18.50;57.70;;;;;;5097402;27;20070;-62
2022/06/22 06:04:45;;;;;;;5.07;2.53;;;18.50;57.60;;;;;;5104839;28;20051;-61
2022/06/22 06:07:18;;;;;;;2.90;2.30;;;18.60;57.60;;;;;;5103194;28;20066;-59
2022/06/22 06:09:47;;;;;;;3.35;2.67;;;18.60;57.80;;;;;;5102202;28;20047;-62
2022/06/22 06:12:20;;;;;;;3.83;2.78;;;18.60;57.80;;;;;;5099949;27;20422;-61
2022/06/22 06:14:52;;;;;;;2.97;2.43;;;18.70;57.90;;;;;;5104480;28;20052;-59
2022/06/22 06:17:28;;;;;;;29.92;14.13;;;18.70;57.70;;;;;;5096438;28;20056;-62
2022/06/22 06:20:00;;;;;;;8.98;4.70;;;18.80;57.40;;;;;;5102472;27;20054;-61
2022/06/22 06:22:30;;;;;;;6.97;3.17;;;18.90;57.10;;;;;;5100885;28;20047;-62
2022/06/22 06:27:52;;;;;;;7.07;3.33;;;19.00;56.60;;;;;;5107888;27;20058;-55
2022/06/22 06:30:24;;;;;;;6.73;3.13;;;19.00;56.90;;;;;;5100414;28;20059;-54
2022/06/22 06:33:00;;;;;;;7.07;3.17;;;19.00;57.20;;;;;;5104631;28;20066;-56
2022/06/22 06:35:35;;;;;;;7.18;3.63;;;19.00;57.00;;;;;;5097282;27;20061;-54
2022/06/22 06:38:16;;;;;;;6.55;3.42;;;18.90;56.90;;;;;;5102601;27;20351;-58
2022/06/22 06:40:49;;;;;;;4.75;3.13;;;18.90;56.90;;;;;;5097936;28;20051;-60
2022/06/22 06:43:36;;;;;;;5.38;2.83;;;18.90;57.00;;;;;;5102377;28;20114;-53
2022/06/22 06:46:06;;;;;;;7.47;3.55;;;18.80;56.90;;;;;;5098207;28;20518;-58
2022/06/22 06:48:36;;;;;;;6.15;3.58;;;18.80;57.10;;;;;;5102655;28;20048;-60
2022/06/22 06:51:07;;;;;;;6.60;3.55;;;18.70;57.20;;;;;;5097664;27;20402;-62
2022/06/22 06:53:39;;;;;;;7.22;3.70;;;18.70;57.30;;;;;;5097239;28;20509;-62
2022/06/22 06:56:14;;;;;;;8.57;3.13;;;18.70;57.40;;;;;;5097491;28;20075;-59
2022/06/22 06:58:46;;;;;;;4.88;3.50;;;18.70;57.40;;;;;;5101692;28;20055;-59
2022/06/22 07:01:20;;;;;;;5.88;3.75;;;18.70;57.60;;;;;;5096033;27;20058;-61
2022/06/22 07:03:49;;;;;;;8.20;3.53;;;18.70;57.40;;;;;;5102355;28;20406;-61
2022/06/22 07:06:18;;;;;;;8.73;4.03;;;18.80;57.50;;;;;;5101712;28;20529;-62
2022/06/22 07:08:49;;;;;;;7.28;3.80;;;18.80;57.80;;;;;;5101926;28;20051;-62
2022/06/22 07:11:31;;;;;;;4.13;3.22;;;18.80;58.00;;;;;;5094712;27;20059;-61
2022/06/22 07:14:04;;;;;;;4.95;3.00;;;18.90;58.10;;;;;;5097176;27;20062;-62
2022/06/22 07:16:32;;;;;;;5.83;3.20;;;19.00;58.10;;;;;;5101956;27;20051;-59
2022/06/22 07:19:05;;;;;;;10.98;4.43;;;19.00;58.10;;;;;;5103718;28;20051;-62
2022/06/22 07:21:41;;;;;;;6.78;3.47;;;19.10;58.40;;;;;;5096839;28;20052;-60
2022/06/22 07:24:15;;;;;;;7.43;4.38;;;19.20;57.70;;;;;;5103019;28;20043;-61
2022/06/22 07:27:02;;;;;;;5.25;3.65;;;19.30;57.80;;;;;;5102046;28;20067;-62
2022/06/22 07:29:36;;;;;;;8.32;4.38;;;19.30;57.70;;;;;;5103676;28;20043;-59
2022/06/22 07:32:15;;;;;;;8.43;3.60;;;19.40;57.80;;;;;;5095807;28;20484;-60
2022/06/22 07:34:49;;;;;;;7.35;3.78;;;19.40;57.80;;;;;;5100390;27;20050;-55
2022/06/22 07:37:22;;;;;;;6.30;3.45;;;19.50;57.80;;;;;;5101935;27;20477;-57
2022/06/22 07:39:56;;;;;;;4.63;3.40;;;19.60;57.40;;;;;;5099711;28;20380;-58
2022/06/22 07:42:24;;;;;;;6.60;3.83;;;19.60;57.10;;;;;;5098186;28;20054;-62
2022/06/22 07:44:52;;;;;;;13.10;3.65;;;19.70;57.20;;;;;;5100739;28;20048;-62
2022/06/22 07:47:27;;;;;;;6.93;2.67;;;19.70;57.10;;;;;;5097892;28;20062;-62
2022/06/22 07:49:58;;;;;;;5.65;3.30;;;19.80;57.70;;;;;;5101805;28;20047;-56
2022/06/22 07:52:32;;;;;;;6.95;4.00;;;19.90;57.20;;;;;;5097679;28;20051;-56
2022/06/22 07:55:07;;;;;;;6.00;3.47;;;19.90;56.10;;;;;;5099728;28;20051;-60
2022/06/22 07:57:42;;;;;;;9.90;3.55;;;20.00;55.20;;;;;;5101472;28;20051;-60
2022/06/22 08:00:16;;;;;;;5.47;3.05;;;20.00;54.50;;;;;;5098549;28;20059;-58
2022/06/22 08:02:52;;;;;;;6.72;2.80;;;20.10;55.00;;;;;;5099424;28;20074;-60
2022/06/22 08:05:24;;;;;;;3.45;2.30;;;20.20;54.50;;;;;;5100394;28;20051;-61
2022/06/22 08:07:58;;;;;;;5.15;2.88;;;20.30;54.40;;;;;;5101387;28;20395;-57
2022/06/22 08:10:33;;;;;;;4.90;2.63;;;20.30;54.40;;;;;;5099473;28;20051;-61
2022/06/22 08:13:07;;;;;;;3.53;2.10;;;20.50;54.20;;;;;;5101760;28;20066;-61
2022/06/22 08:15:39;;;;;;;3.95;2.42;;;20.60;54.70;;;;;;5098469;28;20052;-61
2022/06/22 08:18:09;;;;;;;6.07;2.80;;;20.70;54.30;;;;;;5097409;27;20055;-62
2022/06/22 08:20:40;;;;;;;3.90;2.30;;;20.80;54.20;;;;;;5100583;28;20051;-54
2022/06/22 08:23:16;;;;;;;5.35;2.70;;;20.90;53.60;;;;;;5099688;28;20064;-59
2022/06/22 08:25:45;;;;;;;4.05;2.30;;;20.90;52.50;;;;;;5100917;28;20051;-60
2022/06/22 08:28:15;;;;;;;5.70;2.42;;;21.00;52.90;;;;;;5101796;28;20047;-57
2022/06/22 08:30:43;;;;;;;5.55;2.38;;;21.10;52.40;;;;;;5099120;28;20807;-57
2022/06/22 08:33:14;;;;;;;7.50;2.80;;;21.20;52.60;;;;;;5096596;28;20498;-53
2022/06/22 08:35:49;;;;;;;4.18;2.20;;;21.20;52.20;;;;;;5099650;27;20448;-58
2022/06/22 08:38:25;;;;;;;5.63;2.80;;;21.30;51.70;;;;;;5102582;28;20059;-56
2022/06/22 08:41:00;;;;;;;4.63;1.98;;;21.30;51.50;;;;;;5094343;28;20059;-60
2022/06/22 08:43:34;;;;;;;8.55;1.92;;;21.40;52.00;;;;;;5100654;28;20051;-61
2022/06/22 08:46:29;;;;;;;4.60;2.33;;;21.50;52.50;;;;;;5100997;28;20525;-62
2022/06/22 08:49:17;;;;;;;4.60;2.20;;;21.60;52.80;;;;;;5102467;28;20058;-57
2022/06/22 08:51:55;;;;;;;5.78;2.20;;;21.70;53.00;;;;;;5099281;28;20388;-58
2022/06/22 08:54:52;;;;;;;3.83;2.30;;;21.80;51.70;;;;;;5100186;28;20062;-62
2022/06/22 08:57:27;;;;;;;3.65;1.90;;;21.80;51.70;;;;;;5091616;28;20052;-61
2022/06/22 09:00:11;;;;;;;7.85;2.42;;;21.90;51.40;;;;;;5102350;28;20074;-53
2022/06/22 09:03:15;;;;;;;5.10;1.95;;;21.90;50.90;;;;;;5096368;28;20060;-59
2022/06/22 09:06:14;;;;;;;3.55;1.90;;;22.00;50.50;;;;;;5101165;28;20511;-53
2022/06/22 09:09:04;;;;;;;5.18;1.65;;;22.10;50.50;;;;;;5078139;28;20051;-57
2022/06/22 09:11:38;;;;;;;3.90;1.80;;;22.10;50.30;;;;;;5094761;28;20074;-56
2022/06/22 09:14:36;;;;;;;4.60;1.83;;;22.20;50.50;;;;;;5098724;28;20056;-63
2022/06/22 09:17:17;;;;;;;3.80;1.65;;;22.20;49.00;;;;;;5100336;28;20058;-62
2022/06/22 09:20:03;;;;;;;4.35;2.00;;;22.30;49.20;;;;;;5100250;28;20047;-53
2022/06/22 09:22:45;;;;;;;3.63;1.80;;;22.40;49.00;;;;;;5097418;28;20055;-59
2022/06/22 09:25:28;;;;;;;2.90;1.42;;;22.50;49.10;;;;;;5100335;28;20060;-61
2022/06/22 09:28:04;;;;;;;4.75;1.33;;;22.60;48.30;;;;;;5103140;28;20105;-64
2022/06/22 09:30:56;;;;;;;2.70;1.15;;;22.70;48.80;;;;;;5100952;28;20048;-63
2022/06/22 09:33:52;;;;;;;2.78;1.35;;;22.70;48.70;;;;;;5088132;27;20051;-64
2022/06/22 09:36:54;;;;;;;5.25;1.42;;;22.80;48.60;;;;;;5104482;28;20059;-64
2022/06/22 09:39:47;;;;;;;4.20;1.42;;;22.90;48.30;;;;;;5104233;28;20426;-64
2022/06/22 09:42:36;;;;;;;2.33;1.50;;;23.00;48.70;;;;;;5101905;28;20525;-59
2022/06/22 09:45:32;;;;;;;5.45;1.40;;;23.10;48.80;;;;;;5104568;28;20047;-62
2022/06/22 09:48:18;;;;;;;2.75;1.42;;;23.10;48.40;;;;;;5103715;28;20414;-63
2022/06/22 09:51:03;;;;;;;3.42;1.50;;;23.20;46.50;;;;;;5103511;28;20048;-63
2022/06/22 09:53:51;;;;;;;3.30;1.42;;;23.20;46.50;;;;;;5104165;28;20413;-63
2022/06/22 09:56:44;;;;;;;2.42;1.50;;;23.30;46.40;;;;;;5101433;28;20066;-61
2022/06/22 09:59:30;;;;;;;3.40;1.40;;;23.40;44.90;;;;;;5102720;28;20055;-63
2022/06/22 10:02:14;;;;;;;1.60;1.00;;;23.50;46.00;;;;;;5096282;27;20059;-63
2022/06/22 10:05:10;;;;;;;2.75;1.20;;;23.60;46.50;;;;;;5102150;27;20098;-62
2022/06/22 10:07:50;;;;;;;3.58;1.60;;;23.70;45.60;;;;;;5097015;27;20423;-56
2022/06/22 10:10:33;;;;;;;2.13;1.45;;;23.80;45.60;;;;;;5101918;28;20063;-55
2022/06/22 10:13:38;;;;;;;4.00;1.08;;;23.90;46.30;;;;;;5103362;28;20062;-62
2022/06/22 10:16:41;;;;;;;2.50;1.20;;;24.00;45.00;;;;;;5060895;28;20052;-59
2022/06/22 10:19:34;;;;;;;3.15;1.38;;;24.10;45.20;;;;;;5098119;27;20517;-62
2022/06/22 10:22:15;;;;;;;2.72;1.35;;;24.20;44.70;;;;;;5101159;28;20059;-62
2022/06/22 10:25:06;;;;;;;3.05;1.30;;;24.20;44.20;;;;;;5101783;28;20054;-60
2022/06/22 10:28:04;;;;;;;3.05;1.20;;;24.20;43.70;;;;;;5103982;28;20058;-53
2022/06/22 10:30:41;;;;;;;3.80;1.52;;;24.30;44.30;;;;;;5103101;28;20071;-58
2022/06/22 10:33:36;;;;;;;2.13;1.30;;;24.40;43.50;;;;;;5104250;28;20078;-62
2022/06/22 10:36:32;;;;;;;2.53;1.17;;;24.50;43.50;;;;;;5104488;28;20060;-59
2022/06/22 10:39:30;;;;;;;4.07;1.27;;;24.50;43.20;;;;;;5091710;28;20518;-58
2022/06/22 10:45:15;;;;;;;3.30;1.50;;;24.70;43.20;;;;;;5069258;28;20065;-60
2022/06/22 10:48:12;;;;;;;6.93;1.50;;;24.70;43.00;;;;;;5060493;28;20400;-59
2022/06/22 10:50:50;;;;;;;2.83;1.30;;;24.80;42.90;;;;;;5060900;28;20056;-62
2022/06/22 10:53:57;;;;;;;4.03;1.42;;;24.80;43.40;;;;;;5063063;28;20056;-61
2022/06/22 10:56:49;;;;;;;4.15;1.40;;;24.90;43.70;;;;;;5041073;28;20526;-54
2022/06/22 10:59:48;;;;;;;2.80;1.30;;;25.00;43.60;;;;;;5062143;28;20060;-51
2022/06/22 11:02:41;;;;;;;1.42;1.00;;;25.00;43.20;;;;;;5021035;28;20424;-59
2022/06/22 11:05:35;;;;;;;4.18;1.40;;;25.10;43.30;;;;;;5061073;28;20056;-62
2022/06/22 11:08:22;;;;;;;2.03;1.23;;;25.10;42.00;;;;;;5013722;28;20068;-61
2022/06/22 11:11:15;;;;;;;2.25;1.05;;;25.20;41.50;;;;;;5060293;28;20048;-62
2022/06/22 11:14:00;;;;;;;2.10;1.10;;;25.30;42.60;;;;;;5059244;28;20056;-63
2022/06/22 11:16:45;;;;;;;3.55;1.33;;;25.30;43.20;;;;;;5060014;28;20056;-63
2022/06/22 11:19:45;;;;;;;3.70;1.52;;;25.40;42.50;;;;;;5059052;28;20420;-62
2022/06/22 11:22:27;;;;;;;1.55;0.93;;;25.50;42.40;;;;;;5057499;28;20480;-63
2022/06/22 11:31:55;;;;;;;2.67;0.90;;;25.60;42.30;;;;;;5053481;28;20886;-59
2022/06/22 11:34:59;;;;;;;2.35;1.15;;;25.70;42.70;;;;;;5063795;28;20411;-63
2022/06/22 11:37:42;;;;;;;1.33;1.08;;;25.80;42.30;;;;;;5060901;28;20055;-60
2022/06/22 11:40:50;;;;;;;3.00;1.10;;;25.80;42.10;;;;;;5061048;28;20055;-53
2022/06/22 11:43:38;;;;;;;1.40;0.90;;;25.90;42.20;;;;;;5062184;28;20056;-64
2022/06/22 11:46:14;;;;;;;2.08;1.13;;;25.90;41.00;;;;;;5059658;28;20515;-62
2022/06/22 11:49:08;;;;;;;1.48;1.00;;;25.90;40.40;;;;;;5062647;28;20053;-64
2022/06/22 11:52:12;;;;;;;2.88;1.30;;;26.00;40.50;;;;;;5059504;28;20044;-62
2022/06/22 11:55:18;;;;;;;2.92;1.33;;;26.00;39.20;;;;;;5053221;28;20057;-59
2022/06/22 11:58:11;;;;;;;1.90;1.10;;;26.00;41.00;;;;;;5000989;28;20054;-62
2022/06/22 12:00:49;;;;;;;1.67;1.30;;;26.00;41.20;;;;;;5053909;28;20056;-59
2022/06/22 12:03:46;;;;;;;2.05;0.85;;;26.10;40.30;;;;;;5062901;28;20063;-64
2022/06/22 12:06:43;;;;;;;3.00;1.20;;;26.20;40.00;;;;;;5059934;28;20053;-64
2022/06/22 12:09:30;;;;;;;1.88;1.02;;;26.20;40.10;;;;;;5060367;28;20072;-63
2022/06/22 12:12:32;;;;;;;2.45;1.27;;;26.20;39.30;;;;;;5057414;28;20067;-63
2022/06/22 12:15:09;;;;;;;1.17;0.90;;;26.30;39.60;;;;;;5044695;28;20052;-63
2022/06/22 12:17:57;;;;;;;3.05;1.00;;;26.40;39.20;;;;;;5061469;28;20051;-53
2022/06/22 12:20:51;;;;;;;4.95;0.98;;;26.50;37.30;;;;;;5058805;28;20052;-61
2022/06/22 12:23:36;;;;;;;2.20;1.20;;;26.50;36.70;;;;;;5059515;28;20048;-62
2022/06/22 12:26:22;;;;;;;4.35;1.50;;;26.60;36.50;;;;;;5059583;28;20067;-61
2022/06/22 12:29:15;;;;;;;3.08;1.30;;;26.70;36.80;;;;;;5059949;28;20415;-58
2022/06/22 12:31:47;;;;;;;2.08;1.15;;;26.70;36.70;;;;;;5052367;28;20053;-62
2022/06/22 12:34:25;;;;;;;1.83;1.23;;;26.80;37.00;;;;;;5055601;28;20567;-63
2022/06/22 12:36:57;;;;;;;2.50;1.05;;;26.80;37.40;;;;;;5058115;28;20056;-62
2022/06/22 12:39:29;;;;;;;2.08;1.23;;;26.90;37.90;;;;;;5060069;28;20518;-62
2022/06/22 12:42:15;;;;;;;1.52;0.80;;;27.00;37.90;;;;;;5055483;28;20045;-64
2022/06/22 12:45:23;;;;;;;2.42;0.90;;;27.00;37.10;;;;;;5057434;28;20442;-61
2022/06/22 12:48:07;;;;;;;2.25;1.08;;;27.10;37.90;;;;;;5060949;28;20488;-63
2022/06/22 12:50:57;;;;;;;4.55;1.13;;;27.10;37.90;;;;;;5060914;28;20055;-59
2022/06/22 12:53:30;;;;;;;3.60;1.30;;;27.20;36.90;;;;;;5059335;28;20048;-59
2022/06/22 12:56:04;;;;;;;2.90;1.17;;;27.20;36.30;;;;;;5060948;28;20063;-62
2022/06/22 12:58:40;;;;;;;2.00;1.27;;;27.20;35.70;;;;;;5062494;28;20546;-64
2022/06/22 13:01:07;;;;;;;1.08;0.93;;;27.30;35.60;;;;;;5059663;28;20063;-63
2022/06/22 13:03:40;;;;;;;2.28;1.30;;;27.40;36.70;;;;;;5059718;28;20055;-63
2022/06/22 13:06:08;;;;;;;2.70;0.82;;;27.40;37.40;;;;;;5060580;28;20064;-62
2022/06/22 13:08:36;;;;;;;1.77;1.42;;;27.50;37.10;;;;;;5059558;28;20052;-54
2022/06/22 13:11:15;;;;;;;2.60;1.05;;;27.50;36.80;;;;;;5054137;28;20060;-57
2022/06/22 13:13:53;;;;;;;4.63;0.98;;;27.60;36.20;;;;;;5061338;28;20057;-61
2022/06/22 13:16:27;;;;;;;2.42;1.10;;;27.60;36.80;;;;;;5059514;28;20048;-63
2022/06/22 13:19:04;;;;;;;4.30;1.08;;;27.70;36.60;;;;;;5061534;28;20504;-63
2022/06/22 13:21:38;;;;;;;1.83;1.02;;;27.70;36.20;;;;;;5058507;28;20056;-58
2022/06/22 13:24:20;;;;;;;3.35;1.02;;;27.80;35.80;;;;;;5059324;28;20063;-51
2022/06/22 13:27:01;;;;;;;1.08;0.90;;;27.80;35.00;;;;;;5053981;28;20056;-59
2022/06/22 13:29:34;;;;;;;2.80;1.10;;;27.90;36.20;;;;;;5057473;28;20473;-57
2022/06/22 13:32:05;;;;;;;1.83;1.20;;;27.90;36.50;;;;;;5055870;28;20063;-58
2022/06/22 13:34:39;;;;;;;2.35;1.38;;;28.00;36.20;;;;;;5055852;28;20049;-63
2022/06/22 13:37:11;;;;;;;;;;;28.00;35.80;;;;;;5060080;28;20052;-61
2022/06/22 13:39:51;;;;;;;1.95;0.85;;;28.10;36.60;;;;;;5057386;28;19931;-57
2022/06/22 13:42:33;;;;;;;1.67;0.85;;;28.10;35.10;;;;;;5056429;28;20053;-52
2022/06/22 13:45:15;;;;;;;6.03;1.10;;;28.20;35.10;;;;;;5060126;28;20100;-57
2022/06/22 13:47:59;;;;;;;2.05;1.08;;;28.20;33.50;;;;;;5057505;28;20048;-60
2022/06/22 13:50:54;;;;;;;1.92;1.00;;;28.10;34.10;;;;;;5058247;28;20716;-58
2022/06/22 13:53:33;;;;;;;1.83;0.90;;;28.20;33.70;;;;;;5061104;28;20052;-57
2022/06/22 13:56:08;;;;;;;1.15;1.00;;;28.20;34.80;;;;;;5056872;28;20056;-64
2022/06/22 13:58:44;;;;;;;3.53;1.08;;;28.30;33.70;;;;;;5059838;28;20064;-61
2022/06/22 14:01:17;;;;;;;1.80;1.00;;;28.40;32.60;;;;;;5055348;28;20059;-63
2022/06/22 14:03:51;;;;;;;2.33;1.00;;;28.40;33.20;;;;;;5058581;28;20045;-59